Time;durP1;ratioP1;P1;durP2;ratioP2;P2;SDS_P1;SDS_P2;PMS_P1;PMS_P2;Temp;Humidity;BMP_temperature;BMP_pressure;BME280_temperature;BME280_humidity;BME280_pressure;Samples;Min_cycle;Max_cycle;Signal;HPM_P1;HPM_P2
2021/12/17 00:04:38;;;;;;;6.13;5.63;;;19.10;43.60;;;;;;5011058;28;20464;-65
2021/12/17 00:07:10;;;;;;;5.10;4.70;;;19.20;43.70;;;;;;5002216;28;20854;-65
2021/12/17 00:09:35;;;;;;;5.33;4.93;;;19.10;43.60;;;;;;5003028;28;20441;-65
2021/12/17 00:12:02;;;;;;;5.40;4.93;;;19.10;43.70;;;;;;5006465;28;20968;-65
2021/12/17 00:14:35;;;;;;;5.50;5.10;;;19.10;43.70;;;;;;5004216;28;20719;-65
2021/12/17 00:17:03;;;;;;;5.63;5.23;;;19.10;43.70;;;;;;5004211;28;20546;-65
2021/12/17 00:49:22;;;;;;;5.77;4.43;;;19.10;44.00;;;;;;5003242;28;20451;-65
2021/12/17 00:51:56;;;;;;;4.70;4.40;;;19.10;44.00;;;;;;5003152;28;20456;-65
2021/12/17 00:54:32;;;;;;;4.97;4.57;;;19.10;43.80;;;;;;5006661;28;20482;-65
2021/12/17 00:57:03;;;;;;;4.50;4.20;;;19.10;43.90;;;;;;5000256;28;20428;-65
2021/12/17 00:59:29;;;;;;;5.60;5.10;;;19.10;43.90;;;;;;5002742;28;20445;-65
2021/12/17 01:01:57;;;;;;;5.10;4.70;;;19.10;43.90;;;;;;5000919;28;20455;-65
2021/12/17 01:04:23;;;;;;;5.17;4.77;;;19.10;43.90;;;;;;5003409;28;20222;-65
2021/12/17 01:06:49;;;;;;;4.90;4.60;;;19.10;43.90;;;;;;4996052;28;20477;-65
2021/12/17 01:09:17;;;;;;;5.50;5.10;;;19.10;43.90;;;;;;4999455;28;20247;-65
2021/12/17 01:11:44;;;;;;;5.53;5.23;;;19.10;43.90;;;;;;5001595;28;20500;-65
2021/12/17 01:14:10;;;;;;;5.13;4.73;;;19.10;43.90;;;;;;5004524;28;20445;-65
2021/12/17 01:16:36;;;;;;;5.40;4.93;;;19.10;43.90;;;;;;5001494;28;20448;-66
2021/12/17 01:20:15;;;;;;;5.53;5.13;;;19.10;43.90;;;;;;5000598;28;20458;-65
2021/12/17 01:24:54;;;;;;;5.13;4.70;;;19.10;43.90;;;;;;4990747;28;20464;-65
2021/12/17 01:35:36;;;;;;;4.90;4.60;;;19.10;43.90;;;;;;5000916;28;20456;-65
2021/12/17 01:41:19;;;;;;;5.20;4.90;;;19.10;43.80;;;;;;5002530;28;20251;-65
2021/12/17 01:43:48;;;;;;;4.70;4.40;;;19.10;44.00;;;;;;5001827;28;20444;-65
2021/12/17 01:46:20;;;;;;;4.83;4.53;;;19.10;43.90;;;;;;5003594;28;20511;-65
2021/12/17 01:49:03;;;;;;;5.50;5.10;;;19.10;43.90;;;;;;4997001;28;20427;-65
2021/12/17 01:55:48;;;;;;;5.90;5.30;;;19.10;43.90;;;;;;5001200;28;21068;-65
2021/12/17 01:59:55;;;;;;;5.77;5.37;;;19.10;43.90;;;;;;5001656;28;20462;-65
2021/12/17 02:02:21;;;;;;;4.83;4.40;;;19.10;43.90;;;;;;5003463;28;20440;-65
2021/12/17 02:04:46;;;;;;;5.03;4.63;;;19.10;43.90;;;;;;4998432;28;20445;-65
2021/12/17 02:07:13;;;;;;;5.33;5.03;;;19.10;43.90;;;;;;5001946;28;20228;-65
2021/12/17 02:10:15;;;;;;;4.80;4.50;;;19.10;43.80;;;;;;5001643;28;20220;-65
2021/12/17 02:31:43;;;;;;;5.03;4.73;;;19.00;43.80;;;;;;4999764;28;20473;-65
2021/12/17 02:37:00;;;;;;;5.17;4.70;;;19.10;43.90;;;;;;5000014;28;20246;-64
2021/12/17 02:47:22;;;;;;;5.33;4.90;;;19.10;43.90;;;;;;4997572;28;20950;-65
2021/12/17 02:49:49;;;;;;;5.27;4.83;;;19.00;44.60;;;;;;5002077;28;20537;-64
2021/12/17 02:52:16;;;;;;;5.40;5.00;;;19.00;43.80;;;;;;4999694;28;20236;-64
2021/12/17 02:54:42;;;;;;;4.97;4.60;;;19.00;43.80;;;;;;5004148;28;20450;-64
2021/12/17 02:57:10;;;;;;;5.90;5.37;;;19.00;43.80;;;;;;4996751;28;20532;-64
2021/12/17 02:59:37;;;;;;;5.13;4.80;;;19.00;43.80;;;;;;5001606;28;20928;-64
2021/12/17 03:02:04;;;;;;;5.10;4.70;;;19.00;43.80;;;;;;5002148;28;20436;-64
2021/12/17 03:04:33;;;;;;;6.40;5.90;;;19.10;43.80;;;;;;5001832;28;20461;-64
2021/12/17 03:06:59;;;;;;;4.97;4.57;;;19.00;43.80;;;;;;4998418;28;20466;-64
2021/12/17 03:09:45;;;;;;;5.43;5.00;;;19.00;43.80;;;;;;4998594;28;20425;-64
2021/12/17 03:12:19;;;;;;;4.97;4.67;;;19.00;43.80;;;;;;5001665;28;20711;-64
2021/12/17 03:14:56;;;;;;;4.67;4.37;;;19.00;43.80;;;;;;4998027;28;20544;-64
2021/12/17 03:17:47;;;;;;;5.00;4.70;;;19.00;43.80;;;;;;4999517;28;20424;-64
2021/12/17 03:25:36;;;;;;;5.03;4.63;;;19.00;43.80;;;;;;4998621;28;20985;-64
2021/12/17 03:28:02;;;;;;;4.90;4.60;;;19.00;43.80;;;;;;5003759;28;20514;-64
2021/12/17 03:30:28;;;;;;;4.80;4.50;;;19.00;43.80;;;;;;5002750;28;20216;-64
2021/12/17 03:32:53;;;;;;;5.10;4.70;;;19.00;43.80;;;;;;5000124;28;20354;-63
2021/12/17 03:35:19;;;;;;;5.20;4.90;;;19.10;43.90;;;;;;4996826;28;20270;-64
2021/12/17 03:37:45;;;;;;;4.90;4.60;;;19.00;43.80;;;;;;4996414;28;20685;-64
2021/12/17 03:40:14;;;;;;;4.40;4.10;;;19.00;43.80;;;;;;5001431;28;20231;-64
2021/12/17 03:42:46;;;;;;;5.17;4.77;;;19.10;43.80;;;;;;5001870;28;20314;-63
2021/12/17 03:45:12;;;;;;;4.70;4.40;;;19.00;43.80;;;;;;4996410;28;20424;-63
2021/12/17 03:47:38;;;;;;;5.10;4.60;;;19.00;43.80;;;;;;5005232;28;20421;-64
2021/12/17 03:50:04;;;;;;;5.20;4.83;;;19.00;43.80;;;;;;5004882;28;20959;-63
2021/12/17 03:52:30;;;;;;;5.60;5.20;;;19.00;43.80;;;;;;4999588;28;20228;-63
2021/12/17 03:54:56;;;;;;;5.50;5.10;;;19.00;44.10;;;;;;5005128;28;20457;-63
2021/12/17 03:57:22;;;;;;;5.33;4.93;;;19.00;43.80;;;;;;5004021;28;20213;-63
2021/12/17 03:59:48;;;;;;;5.10;4.77;;;19.00;43.80;;;;;;5004525;28;20436;-64
2021/12/17 04:02:13;;;;;;;4.80;4.60;;;19.00;43.80;;;;;;5000007;28;20236;-63
2021/12/17 04:04:39;;;;;;;5.17;4.83;;;19.00;43.80;;;;;;5005998;28;20220;-63
2021/12/17 04:07:05;;;;;;;4.80;4.50;;;19.00;43.80;;;;;;5000961;28;20236;-63
2021/12/17 04:09:31;;;;;;;5.60;5.10;;;19.00;43.80;;;;;;5000494;28;20274;-65
2021/12/17 04:12:00;;;;;;;5.63;5.20;;;19.00;43.80;;;;;;5002758;28;20232;-65
2021/12/17 04:14:33;;;;;;;5.60;5.20;;;19.00;43.80;;;;;;5002348;28;22182;-65
2021/12/17 04:17:04;;;;;;;5.20;4.90;;;19.00;43.80;;;;;;5000924;28;20458;-64
2021/12/17 04:19:29;;;;;;;4.90;4.60;;;19.00;43.80;;;;;;5006456;28;20450;-64
2021/12/17 04:21:55;;;;;;;4.57;4.27;;;19.00;43.80;;;;;;5002822;28;20840;-64
2021/12/17 04:24:20;;;;;;;4.93;4.63;;;19.10;43.90;;;;;;5003093;28;20312;-64
2021/12/17 04:26:46;;;;;;;4.80;4.50;;;19.00;43.80;;;;;;5004018;28;20701;-64
2021/12/17 04:29:12;;;;;;;5.30;5.00;;;19.00;43.80;;;;;;4999142;28;20221;-64
2021/12/17 04:31:38;;;;;;;5.07;4.77;;;19.00;43.80;;;;;;5003095;28;20635;-65
2021/12/17 04:34:04;;;;;;;5.10;4.70;;;19.00;43.80;;;;;;5000222;28;20538;-64
2021/12/17 04:36:32;;;;;;;4.80;4.50;;;19.00;43.80;;;;;;5003784;28;20311;-65
2021/12/17 04:38:59;;;;;;;6.00;5.50;;;19.00;43.80;;;;;;5005517;28;20279;-63
2021/12/17 04:57:27;;;;;;;5.73;5.33;;;19.00;43.80;;;;;;4939169;28;20524;-63
2021/12/17 04:59:57;;;;;;;5.10;4.80;;;19.00;43.80;;;;;;4993038;28;20938;-64
2021/12/17 05:02:22;;;;;;;5.07;4.73;;;19.00;43.80;;;;;;5003094;28;20474;-64
2021/12/17 05:04:48;;;;;;;5.53;5.10;;;19.00;43.80;;;;;;5002286;28;20424;-64
2021/12/17 05:07:17;;;;;;;5.40;5.10;;;19.00;43.80;;;;;;5000119;28;20233;-64
2021/12/17 05:20:34;;;;;;;5.60;5.10;;;19.00;43.80;;;;;;5002217;28;21031;-64
2021/12/17 05:22:59;;;;;;;5.33;5.03;;;19.00;43.80;;;;;;5002495;28;20454;-63
2021/12/17 05:25:26;;;;;;;4.50;4.20;;;19.10;43.90;;;;;;5003709;28;20450;-63
2021/12/17 05:28:00;;;;;;;5.83;5.43;;;19.10;43.80;;;;;;5004120;28;20446;-62
2021/12/17 05:30:27;;;;;;;4.70;4.40;;;19.10;43.80;;;;;;5005042;28;20595;-63
2021/12/17 05:32:53;;;;;;;5.33;4.93;;;19.10;43.80;;;;;;4995654;28;20461;-63
2021/12/17 05:35:19;;;;;;;5.03;4.70;;;19.10;43.90;;;;;;4999568;28;20469;-62
2021/12/17 05:37:44;;;;;;;5.47;5.07;;;19.10;43.90;;;;;;4997049;28;20465;-64
2021/12/17 05:40:11;;;;;;;5.70;5.30;;;19.10;44.60;;;;;;4997811;28;20224;-63
2021/12/17 05:42:37;;;;;;;5.33;4.83;;;19.10;43.90;;;;;;4998001;28;20231;-62
2021/12/17 05:45:09;;;;;;;5.53;5.03;;;19.10;43.90;;;;;;4998309;28;20533;-63
2021/12/17 05:47:35;;;;;;;5.90;5.40;;;19.10;44.00;;;;;;4999869;28;20227;-64
2021/12/17 05:50:00;;;;;;;5.23;4.63;;;19.10;43.90;;;;;;5000864;28;20496;-63
2021/12/17 05:52:26;;;;;;;5.73;5.10;;;19.20;44.00;;;;;;5001884;28;20232;-63
2021/12/17 05:54:52;;;;;;;5.73;5.33;;;19.20;44.00;;;;;;4998478;28;20741;-63
2021/12/17 05:57:17;;;;;;;7.50;5.17;;;19.20;44.00;;;;;;5000163;28;20283;-62
2021/12/17 05:59:43;;;;;;;5.60;5.10;;;19.20;44.00;;;;;;4998535;28;20227;-62
2021/12/17 06:02:11;;;;;;;5.20;4.80;;;19.20;44.00;;;;;;5006166;28;20274;-67
2021/12/17 06:04:37;;;;;;;5.00;4.70;;;19.20;44.00;;;;;;5000215;28;20728;-67
2021/12/17 06:07:04;;;;;;;5.30;5.00;;;19.20;44.00;;;;;;4997653;28;20437;-67
2021/12/17 06:09:30;;;;;;;5.07;4.73;;;19.20;43.90;;;;;;5001518;28;20478;-66
2021/12/17 06:11:55;;;;;;;4.90;4.50;;;19.20;44.00;;;;;;5000817;28;25846;-67
2021/12/17 06:14:21;;;;;;;5.43;4.47;;;19.20;44.00;;;;;;5004740;28;20508;-67
2021/12/17 06:16:48;;;;;;;9.30;4.80;;;19.20;44.00;;;;;;5000483;28;20586;-67
2021/12/17 06:19:17;;;;;;;4.80;4.40;;;19.20;43.90;;;;;;4997843;28;20220;-67
2021/12/17 06:21:43;;;;;;;4.90;4.60;;;19.20;43.90;;;;;;4996882;28;20564;-67
2021/12/17 06:24:08;;;;;;;4.67;4.37;;;19.20;43.90;;;;;;4999136;28;21012;-65
2021/12/17 06:26:34;;;;;;;5.57;5.07;;;19.20;43.90;;;;;;5000455;28;20232;-66
2021/12/17 06:29:00;;;;;;;4.70;4.40;;;19.20;43.90;;;;;;5002378;28;20219;-66
2021/12/17 06:31:26;;;;;;;7.53;5.30;;;19.20;43.90;;;;;;5000784;28;23605;-67
2021/12/17 06:33:52;;;;;;;5.47;4.67;;;19.20;43.80;;;;;;5000867;28;20282;-67
2021/12/17 06:36:17;;;;;;;4.67;4.27;;;19.20;43.90;;;;;;4996543;28;20450;-66
2021/12/17 06:38:43;;;;;;;5.10;4.70;;;19.20;43.90;;;;;;4999546;28;20215;-66
2021/12/17 06:41:09;;;;;;;4.93;4.53;;;19.20;43.90;;;;;;4999709;28;20759;-66
2021/12/17 06:43:40;;;;;;;5.57;5.07;;;19.20;43.90;;;;;;4997606;28;20228;-66
2021/12/17 06:48:41;;;;;;;5.17;4.77;;;19.20;43.90;;;;;;5004883;28;20457;-66
2021/12/17 07:10:13;;;;;;;5.63;5.13;;;19.20;43.90;;;;;;5001506;28;20814;-64
2021/12/17 07:33:23;;;;;;;5.83;5.30;;;19.20;44.00;;;;;;5004553;28;20616;-64
2021/12/17 07:35:53;;;;;;;6.07;5.50;;;19.20;43.90;;;;;;5003775;28;20542;-64
2021/12/17 07:41:02;;;;;;;5.70;4.80;;;19.20;44.00;;;;;;5002360;28;20424;-63
2021/12/17 07:43:39;;;;;;;5.30;4.80;;;19.20;43.90;;;;;;5002749;28;20444;-63
2021/12/17 07:46:13;;;;;;;5.53;5.07;;;19.20;43.90;;;;;;5006134;28;20445;-63
2021/12/17 07:48:40;;;;;;;4.90;4.50;;;19.20;43.90;;;;;;5004744;28;20459;-64
2021/12/17 07:51:09;;;;;;;4.73;4.33;;;19.20;43.90;;;;;;5004005;28;20591;-63
2021/12/17 07:53:35;;;;;;;8.73;5.90;;;19.30;44.00;;;;;;5003717;28;20540;-63
2021/12/17 07:56:04;;;;;;;5.30;4.80;;;19.20;43.80;;;;;;5003113;28;20460;-63
2021/12/17 07:58:30;;;;;;;4.73;4.40;;;19.20;43.80;;;;;;5003106;28;20516;-63
2021/12/17 08:00:56;;;;;;;5.40;5.00;;;19.20;43.80;;;;;;5005149;28;20460;-64
2021/12/17 08:03:21;;;;;;;5.50;5.00;;;19.20;43.90;;;;;;5005212;28;20476;-64
2021/12/17 08:05:48;;;;;;;5.00;4.60;;;19.20;43.80;;;;;;5005477;28;20462;-65
2021/12/17 08:08:14;;;;;;;4.87;4.47;;;19.20;43.80;;;;;;5000303;28;20222;-64
2021/12/17 08:10:40;;;;;;;5.63;5.03;;;19.20;43.80;;;;;;5001693;28;20453;-65
2021/12/17 08:13:08;;;;;;;5.63;5.13;;;19.30;43.80;;;;;;5005396;28;20224;-65
2021/12/17 08:15:41;;;;;;;4.97;4.57;;;19.30;43.90;;;;;;5005199;28;20691;-65
2021/12/17 08:28:16;;;;;;;5.10;4.70;;;19.30;43.80;;;;;;5003872;28;20220;-65
2021/12/17 08:30:41;;;;;;;5.70;5.20;;;19.30;43.80;;;;;;5002705;28;20457;-65
2021/12/17 08:33:08;;;;;;;5.20;4.80;;;19.30;43.80;;;;;;5000404;28;20454;-65
2021/12/17 08:35:34;;;;;;;5.30;4.70;;;19.30;43.80;;;;;;5002785;28;20682;-64
2021/12/17 08:38:04;;;;;;;5.57;5.07;;;19.30;43.70;;;;;;5004554;28;20463;-64
2021/12/17 08:40:30;;;;;;;5.23;4.80;;;19.30;43.70;;;;;;4999883;28;20953;-64
2021/12/17 08:42:55;;;;;;;5.40;4.90;;;19.30;43.80;;;;;;5000602;28;20505;-64
2021/12/17 08:45:21;;;;;;;5.17;4.67;;;19.30;43.80;;;;;;5004175;28;20453;-64
2021/12/17 08:47:48;;;;;;;4.70;4.30;;;19.30;43.70;;;;;;5007073;28;21080;-64
2021/12/17 08:50:15;;;;;;;4.93;4.60;;;19.30;43.70;;;;;;5001040;28;20221;-64
2021/12/17 08:52:41;;;;;;;4.87;4.40;;;19.30;43.70;;;;;;5003681;28;20462;-64
2021/12/17 08:55:07;;;;;;;4.27;3.97;;;19.30;43.70;;;;;;5005658;28;20894;-65
2021/12/17 08:57:33;;;;;;;4.90;4.50;;;19.30;43.70;;;;;;5002616;28;20561;-64
2021/12/17 09:00:04;;;;;;;4.70;4.40;;;19.30;43.60;;;;;;5000301;28;20557;-64
2021/12/17 09:02:31;;;;;;;5.30;4.90;;;19.30;43.70;;;;;;5004231;28;20238;-64
2021/12/17 09:04:56;;;;;;;4.07;3.77;;;19.30;43.60;;;;;;5002517;28;20488;-63
2021/12/17 09:07:22;;;;;;;5.07;4.67;;;19.30;43.60;;;;;;5000718;28;20494;-63
2021/12/17 09:09:48;;;;;;;4.07;3.80;;;19.30;43.60;;;;;;5005997;28;20705;-64
2021/12/17 09:12:14;;;;;;;5.33;4.83;;;19.30;43.60;;;;;;5002777;28;20239;-63
2021/12/17 09:14:39;;;;;;;4.50;4.10;;;19.30;43.60;;;;;;5006964;28;20465;-63
2021/12/17 09:17:05;;;;;;;4.23;3.90;;;19.30;43.60;;;;;;5004221;28;20224;-63
2021/12/17 09:19:32;;;;;;;5.97;4.30;;;19.30;43.60;;;;;;5001791;28;20724;-63
2021/12/17 09:21:58;;;;;;;3.93;3.73;;;19.30;43.60;;;;;;5004221;28;20236;-64
2021/12/17 09:24:24;;;;;;;4.10;3.80;;;19.30;43.60;;;;;;5002895;28;20456;-64
2021/12/17 09:26:49;;;;;;;4.83;4.10;;;19.30;43.60;;;;;;5002923;28;20956;-64
2021/12/17 09:29:15;;;;;;;4.43;4.03;;;19.30;43.60;;;;;;5000162;28;20278;-63
2021/12/17 09:31:41;;;;;;;5.80;5.30;;;19.30;43.60;;;;;;5002681;28;20234;-64
2021/12/17 09:34:06;;;;;;;4.63;4.10;;;19.30;43.60;;;;;;5003998;28;20299;-63
2021/12/17 09:36:33;;;;;;;4.40;3.90;;;19.30;43.50;;;;;;5001405;28;20220;-63
2021/12/17 09:38:59;;;;;;;4.47;4.07;;;19.30;43.60;;;;;;5005244;28;20220;-63
2021/12/17 09:41:26;;;;;;;4.83;3.80;;;19.30;43.60;;;;;;5000646;28;20509;-63
2021/12/17 09:43:53;;;;;;;4.23;3.80;;;19.30;43.60;;;;;;5001634;28;20537;-63
2021/12/17 09:46:19;;;;;;;4.27;3.97;;;19.30;43.60;;;;;;5001378;28;20461;-63
2021/12/17 09:48:46;;;;;;;4.20;3.90;;;19.30;43.60;;;;;;4998124;28;20498;-63
2021/12/17 09:51:13;;;;;;;4.13;3.83;;;19.30;43.60;;;;;;5005169;28;20735;-63
2021/12/17 09:53:39;;;;;;;4.07;3.70;;;19.20;43.50;;;;;;5003040;28;20428;-64
2021/12/17 09:56:05;;;;;;;3.93;3.63;;;19.30;43.60;;;;;;5001195;28;20451;-64
2021/12/17 09:58:32;;;;;;;4.33;3.93;;;19.30;43.60;;;;;;5001840;28;20224;-63
2021/12/17 10:00:58;;;;;;;4.17;3.77;;;19.30;43.60;;;;;;5003601;28;20481;-63
2021/12/17 10:03:26;;;;;;;5.03;4.57;;;19.30;43.60;;;;;;5003775;28;20456;-64
2021/12/17 10:05:53;;;;;;;5.40;3.70;;;19.30;43.50;;;;;;5000880;28;20309;-64
2021/12/17 10:08:21;;;;;;;4.67;4.17;;;19.20;43.50;;;;;;5007114;28;20446;-64
2021/12/17 10:10:58;;;;;;;5.17;4.67;;;19.20;43.50;;;;;;4997957;28;20935;-64
2021/12/17 10:13:25;;;;;;;4.00;3.70;;;19.30;43.50;;;;;;4998606;28;20444;-64
2021/12/17 10:15:56;;;;;;;4.17;3.83;;;19.30;43.60;;;;;;5001755;28;20428;-63
2021/12/17 10:18:42;;;;;;;4.73;4.43;;;19.20;43.50;;;;;;5004108;28;20501;-64
2021/12/17 10:21:23;;;;;;;5.23;4.70;;;19.20;43.40;;;;;;5003959;28;21165;-64
2021/12/17 10:23:51;;;;;;;4.70;4.40;;;19.20;43.50;;;;;;5005501;28;20477;-63
2021/12/17 10:26:20;;;;;;;5.03;4.53;;;19.30;43.60;;;;;;5002441;28;20552;-62
2021/12/17 10:28:57;;;;;;;9.50;4.77;;;19.20;43.50;;;;;;5001753;28;21133;-62
2021/12/17 10:31:24;;;;;;;9.90;5.10;;;19.20;43.50;;;;;;5002452;28;20458;-63
2021/12/17 10:33:51;;;;;;;6.03;4.60;;;19.20;43.60;;;;;;5003154;28;20458;-62
2021/12/17 10:36:17;;;;;;;11.80;5.20;;;19.20;43.50;;;;;;5007188;28;20456;-62
2021/12/17 10:38:44;;;;;;;6.17;4.77;;;19.20;43.50;;;;;;4999655;28;20450;-62
2021/12/17 10:41:14;;;;;;;6.13;4.70;;;19.30;43.50;;;;;;5003527;28;20227;-63
2021/12/17 10:43:48;;;;;;;5.50;4.27;;;19.30;43.50;;;;;;5005213;28;20432;-63
2021/12/17 10:46:28;;;;;;;5.40;4.03;;;19.30;43.30;;;;;;5002205;28;20443;-64
2021/12/17 10:54:15;;;;;;;5.03;4.43;;;19.40;43.20;;;;;;5001569;28;20450;-63
2021/12/17 10:56:47;;;;;;;4.60;4.20;;;19.40;43.10;;;;;;4997146;28;20567;-63
2021/12/17 10:59:16;;;;;;;6.90;4.00;;;19.40;43.10;;;;;;5003444;28;20464;-63
2021/12/17 11:01:55;;;;;;;4.60;4.20;;;19.40;43.10;;;;;;5001781;28;20469;-63
2021/12/17 11:04:23;;;;;;;4.37;4.07;;;19.40;43.10;;;;;;5000774;28;20460;-66
2021/12/17 11:06:53;;;;;;;6.23;5.13;;;19.40;43.10;;;;;;5003994;28;20481;-65
2021/12/17 11:09:34;;;;;;;5.07;4.67;;;19.40;43.10;;;;;;5001067;28;20473;-64
2021/12/17 11:12:20;;;;;;;4.60;4.20;;;19.40;43.20;;;;;;5001046;28;20552;-64
2021/12/17 11:14:47;;;;;;;4.90;4.43;;;19.40;43.20;;;;;;5001956;28;20507;-64
2021/12/17 11:17:15;;;;;;;5.33;4.83;;;19.30;43.20;;;;;;5001265;28;20457;-63
2021/12/17 11:19:42;;;;;;;4.80;4.30;;;19.30;43.20;;;;;;5003049;28;20447;-63
2021/12/17 11:22:08;;;;;;;5.73;4.63;;;19.30;43.20;;;;;;5001765;28;20548;-63
2021/12/17 11:24:35;;;;;;;4.57;4.23;;;19.30;43.20;;;;;;5003839;28;20985;-63
2021/12/17 11:27:04;;;;;;;7.57;5.20;;;19.30;43.20;;;;;;5002538;28;20782;-63
2021/12/17 11:29:30;;;;;;;4.73;4.17;;;19.30;43.20;;;;;;4999732;28;20449;-63
2021/12/17 11:31:59;;;;;;;5.43;4.93;;;19.30;43.20;;;;;;4998557;28;26241;-63
2021/12/17 11:34:25;;;;;;;4.93;4.53;;;19.30;43.20;;;;;;5001697;28;20863;-63
2021/12/17 11:36:51;;;;;;;5.17;4.67;;;19.30;43.20;;;;;;5004582;28;20432;-63
2021/12/17 11:39:30;;;;;;;4.30;4.00;;;19.30;43.20;;;;;;5000418;28;20988;-62
2021/12/17 11:42:19;;;;;;;5.70;5.00;;;19.30;43.20;;;;;;4999863;28;20465;-62
2021/12/17 11:44:53;;;;;;;4.30;4.00;;;19.30;43.30;;;;;;5001159;28;20473;-62
2021/12/17 11:47:20;;;;;;;4.23;3.93;;;19.30;43.30;;;;;;5000503;28;20476;-63
2021/12/17 11:49:51;;;;;;;5.30;4.80;;;19.30;43.40;;;;;;5016857;28;20453;-62
2021/12/17 11:52:39;;;;;;;4.93;4.43;;;19.30;43.30;;;;;;5001482;28;20868;-63
2021/12/17 11:55:25;;;;;;;4.90;4.50;;;19.30;43.30;;;;;;5000723;28;20424;-62
2021/12/17 11:57:59;;;;;;;5.00;4.60;;;19.30;43.30;;;;;;5001228;28;20432;-62
2021/12/17 12:00:48;;;;;;;4.40;4.10;;;19.20;43.30;;;;;;4998370;28;20462;-62
2021/12/17 12:03:22;;;;;;;5.17;4.73;;;19.20;43.20;;;;;;4996137;28;20986;-63
2021/12/17 12:06:00;;;;;;;4.57;4.27;;;19.30;43.40;;;;;;4999072;28;20487;-62
2021/12/17 12:08:49;;;;;;;4.67;4.37;;;19.30;43.50;;;;;;5002384;28;20451;-62
2021/12/17 12:11:25;;;;;;;4.67;4.13;;;19.20;43.30;;;;;;5006992;28;20461;-62
2021/12/17 12:13:54;;;;;;;5.60;5.10;;;19.20;43.30;;;;;;5002966;28;20568;-62
2021/12/17 12:16:25;;;;;;;4.03;3.73;;;19.20;43.30;;;;;;5002097;28;20446;-62
2021/12/17 12:18:53;;;;;;;4.97;4.57;;;19.20;43.30;;;;;;5002849;28;20800;-62
2021/12/17 12:21:22;;;;;;;5.30;4.80;;;19.20;43.30;;;;;;5003695;28;20446;-62
2021/12/17 12:24:10;;;;;;;4.50;4.10;;;19.20;43.30;;;;;;5002871;28;21043;-62
2021/12/17 12:26:40;;;;;;;4.77;4.33;;;19.20;43.30;;;;;;5003355;28;20435;-62
2021/12/17 12:29:10;;;;;;;4.30;4.00;;;19.20;43.30;;;;;;5005105;28;20436;-62
2021/12/17 12:31:37;;;;;;;6.20;4.97;;;19.20;43.30;;;;;;5005345;28;20429;-61
2021/12/17 12:34:03;;;;;;;5.50;5.10;;;19.20;43.30;;;;;;4999903;28;20459;-62
2021/12/17 12:36:47;;;;;;;4.70;4.40;;;19.20;43.30;;;;;;5005217;28;21019;-61
2021/12/17 12:39:39;;;;;;;5.07;4.67;;;19.20;43.30;;;;;;5018364;28;20421;-61
2021/12/17 12:42:06;;;;;;;5.50;4.13;;;19.20;43.30;;;;;;5002248;28;20502;-62
2021/12/17 12:44:47;;;;;;;4.40;4.00;;;19.20;43.30;;;;;;5003135;28;20454;-62
2021/12/17 12:47:29;;;;;;;4.80;4.50;;;19.20;43.30;;;;;;5002856;28;20436;-61
2021/12/17 12:50:08;;;;;;;5.40;4.90;;;19.20;43.30;;;;;;5003430;28;20462;-61
2021/12/17 12:52:39;;;;;;;5.00;4.70;;;19.20;43.30;;;;;;5004524;28;20469;-61
2021/12/17 12:55:13;;;;;;;4.40;4.00;;;19.20;43.30;;;;;;5002075;28;20479;-61
2021/12/17 12:57:45;;;;;;;5.07;4.67;;;19.20;43.30;;;;;;4999191;28;20537;-62
2021/12/17 13:00:13;;;;;;;4.30;3.90;;;19.20;43.30;;;;;;5005783;28;20845;-61
2021/12/17 13:02:42;;;;;;;5.50;5.00;;;19.20;43.30;;;;;;5002141;28;20432;-61
2021/12/17 13:05:08;;;;;;;4.43;4.10;;;19.20;43.30;;;;;;5002787;28;21086;-61
2021/12/17 13:07:47;;;;;;;4.53;4.20;;;19.20;43.30;;;;;;5008274;28;20431;-64
2021/12/17 13:10:49;;;;;;;5.97;5.50;;;19.20;43.30;;;;;;5002147;28;20462;-63
2021/12/17 13:22:13;;;;;;;4.57;4.23;;;19.20;43.30;;;;;;5002603;28;20796;-62
2021/12/17 13:24:39;;;;;;;4.73;4.43;;;19.20;43.30;;;;;;4999586;28;20451;-62
2021/12/17 13:27:10;;;;;;;5.27;4.87;;;19.20;43.30;;;;;;5000803;28;20431;-62
2021/12/17 13:29:38;;;;;;;4.90;4.40;;;19.20;43.30;;;;;;5000295;28;20294;-62
2021/12/17 13:32:06;;;;;;;4.77;4.40;;;19.20;43.30;;;;;;5002538;28;20968;-62
2021/12/17 13:34:42;;;;;;;4.80;4.10;;;19.20;43.50;;;;;;5001800;28;20471;-62
2021/12/17 13:37:16;;;;;;;5.40;4.67;;;19.20;43.30;;;;;;4999308;28;20424;-62
2021/12/17 13:40:00;;;;;;;5.10;4.80;;;19.20;43.30;;;;;;5002285;28;20461;-62
2021/12/17 13:42:37;;;;;;;4.67;4.27;;;19.20;43.30;;;;;;5000344;28;20532;-62
2021/12/17 13:45:08;;;;;;;5.10;4.70;;;19.20;43.40;;;;;;5017220;28;20428;-62
2021/12/17 13:47:36;;;;;;;5.13;4.80;;;19.20;43.30;;;;;;5004337;28;20901;-62
2021/12/17 13:50:08;;;;;;;5.50;5.00;;;19.20;43.40;;;;;;5001306;28;20453;-62
2021/12/17 13:52:36;;;;;;;5.20;4.80;;;19.10;43.40;;;;;;4998940;28;20838;-61
2021/12/17 13:55:05;;;;;;;4.93;4.63;;;19.20;43.50;;;;;;5001116;28;20473;-62
2021/12/17 13:57:32;;;;;;;6.00;5.50;;;19.20;43.50;;;;;;5000763;28;20446;-62
2021/12/17 14:00:05;;;;;;;5.37;5.00;;;19.10;43.40;;;;;;5003603;28;20773;-62
2021/12/17 14:02:34;;;;;;;4.60;4.30;;;19.10;43.40;;;;;;5001137;28;20516;-61
2021/12/17 14:05:03;;;;;;;5.50;5.00;;;19.20;43.50;;;;;;5000263;28;20523;-62
2021/12/17 14:07:32;;;;;;;4.93;4.63;;;19.20;43.50;;;;;;5003034;28;20481;-62
2021/12/17 14:10:01;;;;;;;4.90;4.50;;;19.20;43.50;;;;;;5002617;28;20428;-61
2021/12/17 14:12:32;;;;;;;4.57;4.17;;;19.10;43.40;;;;;;5000577;28;21013;-61
2021/12/17 14:15:04;;;;;;;4.07;3.77;;;19.20;43.50;;;;;;5003999;28;20430;-61
2021/12/17 14:17:44;;;;;;;5.90;5.20;;;19.20;43.60;;;;;;5003082;28;20451;-61
2021/12/17 14:20:24;;;;;;;5.57;5.07;;;19.10;43.40;;;;;;4997356;28;20540;-61
2021/12/17 14:22:55;;;;;;;6.27;5.77;;;19.10;43.40;;;;;;5000502;28;20480;-61
2021/12/17 14:25:31;;;;;;;4.90;4.50;;;19.20;43.60;;;;;;5001988;28;20439;-61
2021/12/17 14:28:00;;;;;;;4.67;4.27;;;19.10;43.40;;;;;;4998183;28;20425;-63
2021/12/17 14:30:33;;;;;;;4.60;4.30;;;19.10;43.40;;;;;;5001240;28;20465;-62
2021/12/17 14:33:05;;;;;;;5.23;4.83;;;19.10;43.40;;;;;;4999593;28;20416;-61
2021/12/17 14:36:10;;;;;;;5.07;4.67;;;19.20;43.50;;;;;;5003054;28;20572;-62
2021/12/17 14:38:46;;;;;;;5.20;4.60;;;19.10;43.40;;;;;;4985493;28;20545;-61
2021/12/17 14:41:17;;;;;;;5.03;4.63;;;19.10;43.40;;;;;;4985671;28;20841;-62
2021/12/17 14:43:56;;;;;;;5.27;4.70;;;19.10;43.50;;;;;;4995629;28;20444;-61
2021/12/17 14:46:24;;;;;;;5.00;4.70;;;19.10;43.40;;;;;;4999216;28;20453;-62
2021/12/17 14:57:25;;;;;;;4.43;4.13;;;19.10;43.40;;;;;;4998916;28;20421;-62
2021/12/17 15:02:51;;;;;;;4.97;4.67;;;19.10;43.50;;;;;;4998069;28;20491;-61
2021/12/17 15:05:24;;;;;;;4.70;4.40;;;19.10;43.50;;;;;;4997925;28;20445;-61
2021/12/17 15:07:51;;;;;;;4.93;4.63;;;19.10;43.60;;;;;;5004843;28;20428;-61
2021/12/17 15:10:22;;;;;;;5.00;4.50;;;19.10;43.60;;;;;;5003049;28;21096;-61
2021/12/17 15:12:49;;;;;;;4.97;4.60;;;19.20;43.70;;;;;;5002401;28;20443;-61
2021/12/17 15:15:20;;;;;;;5.07;4.67;;;19.10;43.60;;;;;;5001775;28;20835;-61
2021/12/17 15:17:48;;;;;;;5.30;5.00;;;19.10;43.60;;;;;;5002399;28;20458;-61
2021/12/17 15:20:16;;;;;;;4.53;4.23;;;19.10;43.70;;;;;;5001549;28;20472;-61
2021/12/17 15:22:42;;;;;;;4.67;4.33;;;19.10;43.60;;;;;;4999752;28;20455;-61
2021/12/17 15:25:11;;;;;;;4.13;3.83;;;19.10;43.70;;;;;;4997937;28;20449;-61
2021/12/17 15:27:37;;;;;;;4.63;4.23;;;19.10;43.80;;;;;;4999093;28;20235;-64
2021/12/17 15:30:09;;;;;;;4.37;4.07;;;19.10;43.80;;;;;;5000711;28;20955;-61
2021/12/17 15:32:35;;;;;;;4.47;4.20;;;19.10;43.80;;;;;;5003869;28;20441;-62
2021/12/17 15:35:01;;;;;;;4.33;4.03;;;19.10;43.90;;;;;;5002034;28;21018;-61
2021/12/17 15:37:27;;;;;;;4.70;4.43;;;19.10;43.80;;;;;;4999945;28;20561;-60
2021/12/17 15:39:52;;;;;;;4.17;3.87;;;19.10;43.70;;;;;;5003805;28;20235;-61
2021/12/17 15:42:18;;;;;;;4.40;4.00;;;19.20;43.90;;;;;;5002167;28;20282;-61
2021/12/17 15:44:44;;;;;;;3.60;3.40;;;19.10;43.90;;;;;;5003773;28;20704;-62
2021/12/17 15:47:10;;;;;;;4.17;3.97;;;19.10;43.80;;;;;;5006679;28;20309;-61
2021/12/17 15:49:37;;;;;;;3.50;3.30;;;19.10;43.80;;;;;;5004518;28;20449;-62
2021/12/17 15:52:05;;;;;;;4.90;4.60;;;19.10;43.80;;;;;;5003068;28;20251;-62
2021/12/17 15:54:31;;;;;;;5.30;5.00;;;19.10;43.90;;;;;;5006835;28;20452;-62
2021/12/17 15:56:57;;;;;;;3.60;3.40;;;19.10;44.60;;;;;;5004156;28;20935;-62
2021/12/17 15:59:23;;;;;;;3.93;3.63;;;19.10;43.90;;;;;;5001322;28;20546;-62
2021/12/17 16:01:48;;;;;;;4.23;3.93;;;19.10;44.00;;;;;;5007837;28;20215;-62
2021/12/17 16:04:14;;;;;;;4.07;3.87;;;19.10;43.90;;;;;;5005723;28;20244;-62
2021/12/17 16:06:40;;;;;;;3.83;3.63;;;19.10;43.90;;;;;;5001667;28;20610;-65
2021/12/17 16:09:14;;;;;;;3.83;3.53;;;19.10;43.90;;;;;;5006155;28;20424;-62
2021/12/17 16:12:00;;;;;;;4.63;4.17;;;19.10;43.90;;;;;;5007252;28;20228;-62
2021/12/17 16:22:25;;;;;;;3.70;3.50;;;19.10;43.90;;;;;;5003518;28;20488;-62
2021/12/17 16:24:51;;;;;;;3.77;3.57;;;19.10;43.90;;;;;;5002831;28;20461;-61